Time;durP1;ratioP1;P1;durP2;ratioP2;P2;SDS_P1;SDS_P2;PMS_P1;PMS_P2;Temp;Humidity;BMP_temperature;BMP_pressure;BME280_temperature;BME280_humidity;BME280_pressure;Samples;Min_cycle;Max_cycle;Signal;HPM_P1;HPM_P2
2023/07/13 00:02:09;;;;;;;10.65;1.80;;;;;;;19.78;57.15;101174.03;5020268;28;20045;-62
2023/07/13 00:04:36;;;;;;;14.02;2.40;;;;;;;19.87;57.09;101171.03;4991821;28;20050;-60
2023/07/13 00:07:04;;;;;;;8.38;1.85;;;;;;;20.25;56.13;101168.31;4982107;28;20038;-62
2023/07/13 00:09:32;;;;;;;9.68;2.13;;;;;;;20.26;54.84;101174.72;5001917;28;20054;-62
2023/07/13 00:11:59;;;;;;;7.30;1.98;;;;;;;20.17;55.11;101169.34;5048517;28;20508;-61
2023/07/13 00:14:28;;;;;;;10.32;1.90;;;;;;;19.91;56.12;101169.13;5130645;27;20044;-62
2023/07/13 00:16:55;;;;;;;6.22;1.40;;;;;;;19.96;56.28;101174.44;5114732;28;20051;-62
2023/07/13 00:19:23;;;;;;;8.25;1.70;;;;;;;19.62;56.36;101176.03;5057059;28;20519;-61
2023/07/13 00:21:50;;;;;;;6.63;1.80;;;;;;;19.55;56.91;101172.25;5006173;28;20084;-61
2023/07/13 00:24:23;;;;;;;8.70;1.77;;;;;;;19.53;56.72;101178.22;5060590;28;20064;-62
2023/07/13 00:26:51;;;;;;;7.25;1.70;;;;;;;19.70;56.30;101177.81;5030643;28;20060;-68
2023/07/13 00:29:20;;;;;;;11.65;2.42;;;;;;;19.89;55.66;101183.47;5008352;28;20672;-68
2023/07/13 00:31:48;;;;;;;7.10;1.65;;;;;;;19.48;57.16;101174.88;5004534;28;20056;-69
2023/07/13 00:34:16;;;;;;;9.23;1.98;;;;;;;19.61;57.08;101179.22;4991848;28;20050;-69
2023/07/13 00:36:44;;;;;;;7.25;1.80;;;;;;;19.67;56.71;101184.16;4992269;28;20046;-69
2023/07/13 00:39:12;;;;;;;8.88;1.75;;;;;;;19.51;57.00;101180.56;5010568;28;20061;-68
2023/07/13 00:41:39;;;;;;;6.28;1.60;;;;;;;19.86;56.68;101180.59;4994391;28;20046;-68
2023/07/13 00:44:13;;;;;;;8.00;1.80;;;;;;;19.98;55.63;101180.47;5053598;27;20617;-68
2023/07/13 00:46:41;;;;;;;10.73;2.17;;;;;;;20.44;54.36;101187.09;5026774;28;20042;-69
2023/07/13 00:49:21;;;;;;;13.50;1.70;;;;;;;20.47;54.42;101189.16;5009633;28;20050;-69
2023/07/13 00:51:51;;;;;;;10.35;2.10;;;;;;;20.27;54.73;101190.31;5010110;28;20499;-69
2023/07/13 00:54:22;;;;;;;11.13;1.88;;;;;;;20.13;55.20;101200.00;5011018;28;20050;-70
2023/07/13 00:56:52;;;;;;;11.60;2.10;;;;;;;20.12;55.50;101200.34;5006268;28;20058;-70
2023/07/13 00:59:21;;;;;;;6.43;1.70;;;;;;;20.11;54.54;101187.56;4991427;28;20047;-68
2023/07/13 01:01:48;;;;;;;8.32;1.90;;;;;;;20.03;55.25;101192.16;4999792;28;20042;-68
2023/07/13 01:04:16;;;;;;;8.40;1.70;;;;;;;19.86;56.19;101191.75;5009933;28;20064;-69
2023/07/13 01:06:46;;;;;;;6.68;1.48;;;;;;;19.74;56.70;101200.28;5025727;28;20564;-70
2023/07/13 01:09:15;;;;;;;6.03;1.47;;;;;;;20.20;55.93;101201.34;5025088;28;20049;-69
2023/07/13 01:11:44;;;;;;;8.68;1.70;;;;;;;20.12;55.50;101203.16;5010835;28;20042;-69
2023/07/13 01:14:12;;;;;;;8.38;2.00;;;;;;;20.09;55.69;101210.31;5005007;28;20492;-68
2023/07/13 01:16:44;;;;;;;8.32;1.92;;;;;;;20.03;55.66;101205.38;4989725;28;20057;-68
2023/07/13 01:19:21;;;;;;;7.18;1.50;;;;;;;19.71;56.72;101207.41;4989622;28;20409;-70
2023/07/13 01:21:50;;;;;;;6.50;1.95;;;;;;;19.60;57.27;101206.34;4996850;28;20432;-69
2023/07/13 01:24:18;;;;;;;8.07;1.75;;;;;;;19.51;57.51;101211.28;5012952;28;20045;-70
2023/07/13 01:26:45;;;;;;;8.80;1.67;;;;;;;19.56;57.02;101199.06;5028992;28;20050;-69
2023/07/13 01:29:12;;;;;;;9.77;2.10;;;;;;;19.94;56.26;101213.13;5011505;28;20046;-69
2023/07/13 01:31:40;;;;;;;9.85;1.77;;;;;;;19.78;56.35;101204.78;5004437;28;20054;-69
2023/07/13 01:34:08;;;;;;;8.35;1.83;;;;;;;19.68;56.65;101210.91;5078816;28;20052;-70
2023/07/13 01:36:35;;;;;;;9.55;2.10;;;;;;;19.60;56.73;101220.31;5055261;28;20532;-70
2023/07/13 01:39:03;;;;;;;9.75;1.60;;;;;;;19.47;57.29;101221.59;5008526;28;20600;-69
2023/07/13 01:41:31;;;;;;;9.68;1.80;;;;;;;19.33;57.03;101226.81;5001654;28;20069;-69
2023/07/13 01:43:58;;;;;;;5.75;1.48;;;;;;;19.16;57.46;101229.91;4989575;28;20065;-68
2023/07/13 01:46:26;;;;;;;11.35;1.90;;;;;;;19.47;56.98;101221.59;5016733;28;20058;-68
2023/07/13 01:48:53;;;;;;;6.95;1.60;;;;;;;19.67;56.32;101214.91;5005711;28;20047;-68
2023/07/13 01:51:22;;;;;;;9.38;1.95;;;;;;;19.51;55.96;101225.25;5016914;28;20062;-68
2023/07/13 01:53:49;;;;;;;6.55;1.92;;;;;;;19.07;56.80;101221.69;5009631;28;20057;-68
2023/07/13 01:56:17;;;;;;;8.05;2.15;;;;;;;19.37;56.77;101221.31;5003911;28;20062;-67
2023/07/13 01:58:46;;;;;;;9.13;1.95;;;;;;;19.54;56.27;101229.34;5008412;28;20050;-69
2023/07/13 02:01:13;;;;;;;8.85;1.90;;;;;;;19.38;56.90;101220.97;5009920;28;20046;-68
2023/07/13 02:03:41;;;;;;;7.72;2.08;;;;;;;19.50;56.78;101226.44;5008765;28;20038;-67
2023/07/13 02:06:08;;;;;;;7.63;1.60;;;;;;;19.62;56.14;101228.31;5007978;28;20146;-68
2023/07/13 02:08:37;;;;;;;7.63;1.80;;;;;;;19.66;55.97;101226.44;5010253;28;20072;-69
2023/07/13 02:11:04;;;;;;;6.95;1.67;;;;;;;19.17;55.89;101233.50;5003890;28;20065;-68
2023/07/13 02:13:31;;;;;;;7.40;1.95;;;;;;;19.12;56.29;101226.22;5004782;28;20061;-69
2023/07/13 02:15:59;;;;;;;12.90;1.83;;;;;;;19.26;56.43;101220.19;5000152;28;20042;-69
2023/07/13 02:18:26;;;;;;;9.50;1.85;;;;;;;19.01;56.25;101225.13;5005193;28;20521;-68
2023/07/13 02:20:53;;;;;;;11.73;1.95;;;;;;;19.15;55.97;101228.28;5003952;28;20165;-68
2023/07/13 02:23:21;;;;;;;10.82;2.17;;;;;;;19.35;55.79;101230.06;5010556;28;20046;-69
2023/07/13 02:25:49;;;;;;;6.80;1.45;;;;;;;19.52;54.84;101226.91;5016879;28;20533;-68
2023/07/13 02:28:16;;;;;;;6.57;1.83;;;;;;;19.36;55.74;101222.47;5009239;28;20734;-69
2023/07/13 02:30:43;;;;;;;5.53;1.40;;;;;;;19.61;54.87;101221.94;4989913;28;20049;-68
2023/07/13 02:33:11;;;;;;;11.05;1.73;;;;;;;19.65;54.00;101217.25;5024068;28;20082;-69
2023/07/13 02:35:38;;;;;;;7.32;1.80;;;;;;;19.29;55.51;101214.69;5088250;28;20041;-69
2023/07/13 02:38:05;;;;;;;5.90;1.83;;;;;;;19.42;55.25;101221.03;5107573;28;20059;-68
2023/07/13 02:40:33;;;;;;;3.55;1.20;;;;;;;19.43;54.94;101206.72;5112770;28;20062;-69
2023/07/13 02:43:01;;;;;;;9.23;1.70;;;;;;;19.43;54.87;101217.06;5010915;28;20053;-69
2023/07/13 02:45:31;;;;;;;9.10;1.73;;;;;;;19.38;55.41;101222.94;5025193;28;20175;-69
2023/07/13 02:47:58;;;;;;;9.52;1.52;;;;;;;19.43;55.24;101225.44;5008281;28;20060;-69
2023/07/13 02:50:26;;;;;;;7.10;1.48;;;;;;;19.24;55.76;101222.53;5022850;28;20046;-68
2023/07/13 02:52:53;;;;;;;5.93;1.52;;;;;;;19.29;55.59;101225.88;5024551;28;20045;-68
2023/07/13 02:55:20;;;;;;;6.28;1.58;;;;;;;19.48;55.58;101228.78;4991923;28;20064;-68
2023/07/13 02:57:48;;;;;;;5.28;1.45;;;;;;;19.07;56.36;101227.28;5008490;28;20582;-69
2023/07/13 03:00:16;;;;;;;9.18;1.75;;;;;;;19.09;55.86;101232.50;5006961;28;20054;-69
2023/07/13 03:02:44;;;;;;;6.95;1.35;;;;;;;18.86;56.62;101240.66;5012731;28;20544;-68
2023/07/13 03:05:12;;;;;;;5.80;1.52;;;;;;;19.28;55.27;101229.84;4998016;28;20046;-68
2023/07/13 03:07:42;;;;;;;8.40;1.80;;;;;;;19.01;55.92;101231.53;4985919;28;20061;-68
2023/07/13 03:10:10;;;;;;;8.65;1.42;;;;;;;18.91;56.45;101229.25;4997643;28;20046;-69
2023/07/13 03:12:44;;;;;;;5.68;1.45;;;;;;;19.25;55.56;101232.56;5027887;28;20050;-68
2023/07/13 03:15:19;;;;;;;12.02;2.22;;;;;;;19.32;55.12;101236.34;5027704;28;20050;-68
2023/07/13 03:17:48;;;;;;;8.32;1.55;;;;;;;19.24;55.37;101231.72;5011380;28;20061;-68
2023/07/13 03:20:16;;;;;;;6.53;1.52;;;;;;;19.24;55.41;101242.09;5011019;28;20385;-69
2023/07/13 03:22:43;;;;;;;6.50;1.45;;;;;;;19.31;55.41;101237.53;5017737;28;20081;-72
2023/07/13 03:25:11;;;;;;;6.60;1.58;;;;;;;19.56;54.65;101236.16;5013755;28;20053;-70
2023/07/13 03:27:39;;;;;;;8.10;1.58;;;;;;;19.33;54.95;101245.56;5037405;28;20064;-70
2023/07/13 03:30:09;;;;;;;9.88;1.85;;;;;;;19.00;56.26;101246.63;5027362;28;20300;-68
2023/07/13 03:32:36;;;;;;;5.82;1.52;;;;;;;18.92;56.64;101249.59;4991619;28;20620;-69
2023/07/13 03:35:05;;;;;;;10.35;2.05;;;;;;;19.25;55.98;101241.72;4990425;28;20058;-69
2023/07/13 03:37:32;;;;;;;5.90;1.75;;;;;;;19.43;55.68;101251.41;4992979;28;20470;-68
2023/07/13 03:40:00;;;;;;;7.30;1.67;;;;;;;18.61;57.51;101263.44;4990483;28;20058;-69
2023/07/13 03:42:30;;;;;;;11.90;2.22;;;;;;;18.80;57.95;101261.63;5070131;28;20066;-69
2023/07/13 03:44:58;;;;;;;9.27;1.88;;;;;;;18.93;57.45;101262.41;4998536;28;20054;-68
2023/07/13 03:47:25;;;;;;;8.95;1.70;;;;;;;19.08;57.12;101253.22;4993023;28;20053;-69
2023/07/13 03:49:53;;;;;;;10.70;1.40;;;;;;;18.94;57.64;101262.03;4990693;28;20410;-69
2023/07/13 03:52:20;;;;;;;9.60;1.85;;;;;;;18.93;57.81;101260.41;5006962;28;20434;-69
2023/07/13 03:54:48;;;;;;;8.75;1.50;;;;;;;19.07;57.39;101254.41;4991082;28;20060;-69
2023/07/13 03:57:16;;;;;;;8.27;1.30;;;;;;;19.17;57.47;101251.09;4990944;28;20072;-68
2023/07/13 03:59:43;;;;;;;6.70;1.40;;;;;;;19.43;56.41;101251.41;4997996;28;20045;-68
2023/07/13 04:02:11;;;;;;;7.82;1.85;;;;;;;19.47;56.60;101249.53;5027883;28;20056;-69
2023/07/13 04:04:40;;;;;;;7.72;1.95;;;;;;;19.39;57.15;101256.09;5046423;28;20049;-69
2023/07/13 04:07:08;;;;;;;8.65;1.90;;;;;;;19.47;56.65;101255.13;5012175;28;20050;-68
2023/07/13 04:09:37;;;;;;;7.32;1.88;;;;;;;19.74;55.98;101267.34;5006453;28;20041;-68
2023/07/13 04:12:05;;;;;;;11.95;1.90;;;;;;;19.22;57.10;101259.19;5010549;28;20102;-68
2023/07/13 04:14:33;;;;;;;10.38;1.65;;;;;;;19.36;57.58;101264.38;5000206;28;20061;-69
2023/07/13 04:17:00;;;;;;;8.30;1.80;;;;;;;19.05;57.90;101271.53;5006964;28;20095;-69
2023/07/13 04:19:27;;;;;;;15.68;1.85;;;;;;;18.90;58.85;101275.06;4991857;28;20043;-68
2023/07/13 04:21:55;;;;;;;8.45;2.08;;;;;;;19.06;58.65;101280.69;5005038;28;20431;-69
2023/07/13 04:24:22;;;;;;;12.07;2.22;;;;;;;19.53;57.16;101270.44;5011266;28;20064;-69
2023/07/13 04:26:49;;;;;;;7.63;2.15;;;;;;;19.37;57.75;101268.81;5020401;28;20057;-69
2023/07/13 04:29:17;;;;;;;7.57;2.03;;;;;;;19.19;58.29;101273.91;5060038;28;20054;-68
2023/07/13 04:31:44;;;;;;;8.10;2.45;;;;;;;18.90;59.63;101280.66;5111078;28;20059;-70
2023/07/13 04:34:11;;;;;;;8.73;2.45;;;;;;;19.23;59.24;101283.16;5025915;28;20061;-69
2023/07/13 04:36:39;;;;;;;11.32;3.17;;;;;;;19.20;59.18;101280.28;5002951;28;20057;-68
2023/07/13 04:39:06;;;;;;;10.70;3.50;;;;;;;18.99;59.59;101283.28;4990832;28;20069;-67
2023/07/13 04:41:34;;;;;;;8.60;3.00;;;;;;;19.06;60.43;101298.28;4989846;28;20437;-69
2023/07/13 04:44:02;;;;;;;8.55;3.25;;;;;;;19.05;60.27;101293.06;5099248;28;20052;-69
2023/07/13 04:46:30;;;;;;;10.60;3.05;;;;;;;18.92;60.30;101297.88;5011315;28;20061;-70
2023/07/13 04:48:58;;;;;;;13.55;3.17;;;;;;;19.14;59.99;101290.91;5110019;28;20039;-68
2023/07/13 04:51:26;;;;;;;12.82;2.28;;;;;;;19.08;60.41;101293.16;5053174;28;20050;-69
2023/07/13 04:53:53;;;;;;;9.10;2.40;;;;;;;19.04;60.89;101294.19;5011440;28;20081;-69
2023/07/13 04:56:27;;;;;;;6.82;1.90;;;;;;;18.82;61.56;101294.78;5010923;28;20050;-69
2023/07/13 04:58:54;;;;;;;9.75;2.20;;;;;;;18.70;62.33;101283.66;5009276;28;20050;-69
2023/07/13 05:01:22;;;;;;;9.10;1.88;;;;;;;18.70;62.32;101289.22;5010498;28;20089;-69
2023/07/13 05:03:50;;;;;;;9.02;2.20;;;;;;;18.35;63.71;101290.91;5013080;28;20058;-69
2023/07/13 05:06:17;;;;;;;7.95;2.08;;;;;;;18.27;64.29;101289.88;5021413;28;20066;-68
2023/07/13 05:08:44;;;;;;;10.85;1.95;;;;;;;18.68;63.49;101295.16;5087457;28;20054;-68
2023/07/13 05:11:12;;;;;;;9.73;2.25;;;;;;;18.93;62.39;101295.91;5010956;28;20160;-67
2023/07/13 05:13:39;;;;;;;8.40;2.30;;;;;;;18.79;62.82;101292.69;5058792;28;20050;-67
2023/07/13 05:16:07;;;;;;;7.20;1.88;;;;;;;18.59;63.33;101283.34;5129372;27;20059;-68
2023/07/13 05:18:35;;;;;;;12.18;2.30;;;;;;;18.84;62.83;101292.44;5111705;28;20055;-69
2023/07/13 05:21:07;;;;;;;6.47;1.70;;;;;;;19.06;62.07;101289.91;5097805;27;20053;-68
2023/07/13 05:23:36;;;;;;;8.93;2.17;;;;;;;19.11;61.84;101297.19;5015663;28;20292;-69
2023/07/13 05:26:04;;;;;;;9.57;2.13;;;;;;;19.50;60.79;101298.28;5010563;28;20053;-68
2023/07/13 05:28:36;;;;;;;6.45;2.00;;;;;;;19.52;60.29;101299.56;5007994;28;20046;-68
2023/07/13 05:31:04;;;;;;;8.88;2.40;;;;;;;19.39;60.44;101311.97;5010560;28;20050;-68
2023/07/13 05:33:32;;;;;;;7.57;2.13;;;;;;;19.45;60.18;101306.94;5010573;28;20483;-69
2023/07/13 05:36:00;;;;;;;7.00;2.00;;;;;;;19.44;60.64;101317.28;5009393;28;20508;-68
2023/07/13 05:38:28;;;;;;;8.38;1.88;;;;;;;19.56;59.90;101305.25;5010677;28;20066;-68
2023/07/13 05:40:56;;;;;;;12.05;2.13;;;;;;;19.31;60.23;101306.56;5004723;28;20042;-68
2023/07/13 05:43:24;;;;;;;8.48;1.98;;;;;;;19.32;60.52;101319.38;4994164;28;20054;-69
2023/07/13 05:45:54;;;;;;;9.05;2.20;;;;;;;19.39;60.61;101319.53;4990722;28;20038;-69
2023/07/13 05:48:22;;;;;;;6.10;1.90;;;;;;;19.09;61.53;101328.28;5104277;27;20047;-69
2023/07/13 05:50:49;;;;;;;9.57;2.13;;;;;;;19.47;60.99;101329.75;5079063;28;20049;-69
2023/07/13 05:53:16;;;;;;;10.32;2.20;;;;;;;19.49;60.46;101313.44;5011131;28;20054;-68
2023/07/13 05:55:50;;;;;;;5.50;1.77;;;;;;;19.71;59.18;101316.44;5055675;28;20056;-68
2023/07/13 05:58:17;;;;;;;13.23;2.30;;;;;;;19.81;59.10;101324.28;5091866;28;20060;-69
2023/07/13 06:00:45;;;;;;;12.40;2.47;;;;;;;19.61;60.09;101318.94;5044158;28;20416;-68
2023/07/13 06:03:14;;;;;;;8.25;1.80;;;;;;;19.47;60.83;101315.78;5029801;28;20049;-69
2023/07/13 06:05:42;;;;;;;6.72;1.90;;;;;;;19.21;61.46;101316.25;5028688;28;20059;-71
2023/07/13 06:08:09;;;;;;;6.15;1.88;;;;;;;19.15;62.27;101328.00;5028978;28;20065;-61
2023/07/13 06:10:37;;;;;;;8.30;1.77;;;;;;;19.39;61.25;101339.09;5029749;28;20045;-61
2023/07/13 06:13:05;;;;;;;10.18;2.15;;;;;;;19.56;61.17;101333.97;5018329;28;20062;-62
2023/07/13 06:15:33;;;;;;;10.13;2.10;;;;;;;19.77;60.18;101339.34;5008185;28;20477;-61
2023/07/13 06:18:00;;;;;;;8.30;2.40;;;;;;;19.60;60.58;101340.47;5008916;28;20042;-62
2023/07/13 06:20:29;;;;;;;8.77;2.20;;;;;;;19.53;61.14;101343.09;5008336;28;20042;-61
2023/07/13 06:22:56;;;;;;;9.20;1.90;;;;;;;19.79;60.83;101343.38;5017310;28;20060;-62
2023/07/13 06:25:26;;;;;;;7.38;2.08;;;;;;;20.04;59.86;101338.41;5014368;28;20085;-64
2023/07/13 06:27:53;;;;;;;9.30;2.47;;;;;;;20.39;59.12;101347.69;5010315;28;20057;-62
2023/07/13 06:30:21;;;;;;;6.53;2.30;;;;;;;20.43;58.40;101342.19;4992769;28;20046;-64
2023/07/13 06:32:49;;;;;;;7.07;1.80;;;;;;;20.47;57.52;101343.88;4995527;28;20109;-61
2023/07/13 06:35:16;;;;;;;7.00;2.15;;;;;;;20.56;57.88;101347.28;4994180;28;20058;-62
2023/07/13 06:37:44;;;;;;;9.00;2.08;;;;;;;20.29;58.04;101350.25;5009839;28;20050;-61
2023/07/13 06:40:11;;;;;;;11.48;2.60;;;;;;;19.85;59.70;101350.34;5011690;28;20050;-61
2023/07/13 06:42:39;;;;;;;9.10;2.75;;;;;;;19.99;59.85;101345.13;5001454;28;20440;-62
2023/07/13 06:45:07;;;;;;;8.65;2.00;;;;;;;19.80;60.03;101347.81;4999344;28;20057;-61
2023/07/13 06:47:35;;;;;;;9.98;2.03;;;;;;;19.44;61.33;101350.03;5003096;28;20705;-62
2023/07/13 06:50:02;;;;;;;6.43;1.70;;;;;;;19.30;61.81;101344.84;5013172;28;20060;-61
2023/07/13 06:52:29;;;;;;;9.60;1.80;;;;;;;19.25;63.44;101350.66;4997538;28;20058;-61
2023/07/13 06:54:57;;;;;;;8.30;2.28;;;;;;;19.52;62.39;101354.63;4993375;28;20381;-61
2023/07/13 06:57:24;;;;;;;11.82;2.92;;;;;;;19.13;64.32;101356.31;5008704;28;20054;-62
2023/07/13 06:59:51;;;;;;;8.75;2.38;;;;;;;19.47;63.52;101361.31;4997426;28;20057;-62
2023/07/13 07:02:19;;;;;;;10.32;2.50;;;;;;;19.91;62.19;101351.69;5024593;28;20053;-61
2023/07/13 07:04:46;;;;;;;12.27;2.58;;;;;;;20.05;61.37;101354.00;5006378;28;20057;-62
2023/07/13 07:07:13;;;;;;;12.27;2.42;;;;;;;19.76;62.09;101354.47;5011234;28;20061;-61
2023/07/13 07:09:41;;;;;;;8.88;2.13;;;;;;;20.11;61.50;101359.00;5004215;28;20055;-61
2023/07/13 07:12:08;;;;;;;10.90;2.22;;;;;;;20.61;60.17;101360.19;5008302;28;20058;-61
2023/07/13 07:14:37;;;;;;;13.52;2.28;;;;;;;20.57;59.59;101356.50;5008394;28;20058;-61
2023/07/13 07:17:04;;;;;;;9.10;2.30;;;;;;;20.46;60.96;101361.03;5016049;28;20044;-63
2023/07/13 07:19:32;;;;;;;11.02;2.40;;;;;;;20.94;59.15;101361.34;5007965;28;20058;-62
2023/07/13 07:21:59;;;;;;;11.93;2.40;;;;;;;20.28;60.76;101362.59;4990128;28;20695;-60
2023/07/13 07:24:27;;;;;;;22.55;2.72;;;;;;;20.89;59.03;101363.63;5006527;28;20053;-61
2023/07/13 07:26:54;;;;;;;15.70;2.75;;;;;;;20.81;59.59;101364.66;5003679;28;20054;-61
2023/07/13 07:29:26;;;;;;;9.43;2.75;;;;;;;21.02;58.80;101356.75;5002264;28;20053;-62
2023/07/13 07:31:56;;;;;;;8.32;2.10;;;;;;;20.83;58.65;101368.72;5007610;28;20061;-62
2023/07/13 07:34:26;;;;;;;13.10;2.30;;;;;;;20.49;61.21;101380.72;5004072;28;20778;-61
2023/07/13 07:36:54;;;;;;;11.98;2.50;;;;;;;20.92;59.34;101376.91;5004838;28;20064;-61
2023/07/13 07:39:24;;;;;;;10.88;2.75;;;;;;;21.04;59.09;101368.41;5004032;28;20061;-61
2023/07/13 07:41:52;;;;;;;8.38;2.05;;;;;;;21.38;58.02;101369.47;5009362;28;20054;-62
2023/07/13 07:44:24;;;;;;;11.57;2.20;;;;;;;21.47;57.01;101370.88;5009470;28;20046;-62
2023/07/13 07:46:51;;;;;;;15.07;2.80;;;;;;;21.60;56.99;101377.13;5007239;28;20056;-61
2023/07/13 07:49:19;;;;;;;11.30;2.38;;;;;;;21.07;58.57;101381.66;5003330;28;20413;-65
2023/07/13 07:51:46;;;;;;;11.98;2.95;;;;;;;19.91;62.95;101387.25;5005634;28;20127;-62
2023/07/13 07:54:14;;;;;;;11.98;2.53;;;;;;;19.78;64.37;101397.69;5011971;28;20061;-62
2023/07/13 07:56:52;;;;;;;11.88;2.38;;;;;;;20.27;62.73;101392.59;5004691;28;20052;-61
2023/07/13 07:59:23;;;;;;;;;;;;;;;20.92;60.16;101388.91;5011023;28;20057;-62
2023/07/13 08:01:53;;;;;;;10.93;2.30;;;;;;;21.54;57.92;101384.22;5008341;28;19922;-61
2023/07/13 08:04:23;;;;;;;9.80;2.42;;;;;;;21.51;57.52;101382.97;4982040;28;20057;-65
2023/07/13 08:06:56;;;;;;;13.13;2.72;;;;;;;20.78;59.60;101390.59;5006305;28;20060;-62
2023/07/13 08:09:23;;;;;;;13.68;2.67;;;;;;;21.42;58.68;101396.41;5006030;28;20053;-62
2023/07/13 08:11:52;;;;;;;11.80;2.10;;;;;;;21.31;58.11;101394.53;5004711;28;20038;-60
2023/07/13 08:14:22;;;;;;;14.80;2.63;;;;;;;21.67;56.86;101385.69;5004922;28;20054;-61
2023/07/13 08:16:50;;;;;;;10.65;1.98;;;;;;;22.07;55.57;101380.44;5001569;28;20065;-62
2023/07/13 08:19:17;;;;;;;12.10;2.13;;;;;;;22.31;53.95;101386.44;5002017;28;20061;-62
2023/07/13 08:21:44;;;;;;;8.60;2.35;;;;;;;22.63;52.79;101389.75;5003195;28;20046;-61
2023/07/13 08:24:12;;;;;;;11.63;2.00;;;;;;;22.44;52.24;101387.03;5007982;28;20058;-61
2023/07/13 08:26:39;;;;;;;13.60;2.15;;;;;;;22.35;52.47;101389.31;5005504;28;20046;-61
2023/07/13 08:29:07;;;;;;;8.65;2.30;;;;;;;22.30;52.24;101392.41;5004372;28;20053;-62
2023/07/13 08:31:34;;;;;;;8.48;1.85;;;;;;;22.25;52.48;101389.94;5001583;28;20042;-62
2023/07/13 08:34:02;;;;;;;12.88;2.58;;;;;;;22.45;52.50;101393.47;5020234;28;20762;-61
2023/07/13 08:36:29;;;;;;;9.98;2.22;;;;;;;22.89;51.58;101388.94;5009460;28;20068;-62
2023/07/13 08:38:57;;;;;;;10.18;2.42;;;;;;;22.67;51.51;101385.03;5011136;28;20389;-61
2023/07/13 08:41:24;;;;;;;10.60;2.40;;;;;;;22.44;51.19;101386.25;5002553;28;20045;-61
2023/07/13 08:43:56;;;;;;;9.68;1.95;;;;;;;22.46;51.26;101393.09;4999509;28;20046;-61
2023/07/13 08:46:37;;;;;;;8.75;2.03;;;;;;;22.68;50.69;101389.47;5006667;28;20691;-62
2023/07/13 08:49:10;;;;;;;9.18;2.28;;;;;;;22.86;50.49;101384.06;5080976;27;20049;-61
2023/07/13 08:51:51;;;;;;;11.90;2.22;;;;;;;22.73;48.99;101385.50;4998439;28;20058;-62
2023/07/13 08:54:30;;;;;;;7.93;1.90;;;;;;;22.54;49.18;101389.25;5003824;28;20050;-61
2023/07/13 08:57:00;;;;;;;8.57;1.92;;;;;;;22.06;49.66;101390.00;5000912;28;20453;-64
2023/07/13 08:59:31;;;;;;;11.45;2.13;;;;;;;22.17;49.23;101386.22;4997793;28;20058;-63
2023/07/13 09:02:18;;;;;;;6.85;1.80;;;;;;;22.00;49.70;101392.31;4999217;28;20050;-62
2023/07/13 09:04:48;;;;;;;7.82;1.90;;;;;;;22.05;49.70;101392.03;5004431;28;20069;-62
2023/07/13 09:07:42;;;;;;;6.10;1.60;;;;;;;22.21;48.66;101389.88;5001391;28;20137;-62
2023/07/13 09:10:30;;;;;;;7.93;1.67;;;;;;;22.48;47.86;101385.09;5004297;28;20528;-64
2023/07/13 09:13:35;;;;;;;7.68;1.95;;;;;;;22.73;46.85;101391.94;5001636;28;20053;-62
2023/07/13 09:16:03;;;;;;;6.85;1.98;;;;;;;23.15;45.99;101378.44;5006330;28;20057;-65
2023/07/13 09:18:36;;;;;;;8.65;2.30;;;;;;;23.39;45.21;101385.59;5004819;28;20042;-63
2023/07/13 09:21:07;;;;;;;10.82;2.20;;;;;;;23.42;45.41;101387.66;5019540;28;20668;-65
2023/07/13 09:23:36;;;;;;;6.22;1.70;;;;;;;23.30;45.34;101387.91;5008324;28;20046;-63
2023/07/13 09:26:09;;;;;;;9.25;1.80;;;;;;;23.21;46.01;101387.34;5005599;28;20057;-64
2023/07/13 09:28:43;;;;;;;9.32;2.30;;;;;;;23.27;45.82;101377.41;5013293;28;20057;-62
2023/07/13 09:31:13;;;;;;;7.03;1.63;;;;;;;23.12;44.00;101378.41;5006000;28;20046;-63
2023/07/13 09:33:42;;;;;;;8.93;1.50;;;;;;;22.87;43.43;101386.53;5007534;28;20771;-64
2023/07/13 09:36:20;;;;;;;8.90;1.73;;;;;;;22.75;43.57;101383.91;5008456;28;20076;-63
2023/07/13 09:38:49;;;;;;;12.80;1.67;;;;;;;22.85;43.44;101388.09;5075246;28;20066;-70
2023/07/13 09:41:48;;;;;;;10.07;2.08;;;;;;;22.84;43.55;101390.06;4988090;28;20062;-68
2023/07/13 09:44:17;;;;;;;6.82;1.70;;;;;;;22.80;43.58;101388.41;5007195;28;20050;-67
2023/07/13 09:46:52;;;;;;;8.32;2.05;;;;;;;22.61;44.87;101389.34;5009805;28;20146;-68
2023/07/13 09:49:27;;;;;;;7.70;1.80;;;;;;;22.67;45.59;101396.25;5007337;28;20076;-69
2023/07/13 09:52:00;;;;;;;5.78;1.30;;;;;;;22.15;47.21;101391.41;5008770;28;20053;-68
2023/07/13 09:54:28;;;;;;;5.63;1.50;;;;;;;22.43;46.96;101398.63;5008243;28;20053;-62
2023/07/13 09:56:57;;;;;;;5.93;1.75;;;;;;;22.64;46.62;101396.19;5007965;28;20042;-62
2023/07/13 09:59:49;;;;;;;9.13;1.63;;;;;;;22.50;46.97;101398.75;5004265;28;20409;-63
2023/07/13 10:02:27;;;;;;;8.82;1.90;;;;;;;22.59;46.93;101397.34;5017198;28;20053;-63
2023/07/13 10:04:58;;;;;;;8.32;2.00;;;;;;;22.49;47.22;101403.56;5004766;28;20198;-62
2023/07/13 10:07:26;;;;;;;11.07;2.60;;;;;;;22.17;47.94;101405.88;5030146;28;20052;-61
2023/07/13 10:10:00;;;;;;;9.90;2.47;;;;;;;22.15;48.32;101407.41;5071602;28;20412;-63
2023/07/13 10:12:30;;;;;;;7.90;2.33;;;;;;;22.53;47.28;101410.03;5006763;28;20058;-63
2023/07/13 10:15:00;;;;;;;7.45;2.00;;;;;;;22.64;47.61;101407.44;5002615;28;20061;-67
2023/07/13 10:17:48;;;;;;;8.25;1.83;;;;;;;22.55;47.79;101404.91;5005805;28;20058;-68
2023/07/13 10:20:16;;;;;;;7.70;2.17;;;;;;;22.64;47.29;101407.44;5009509;28;20050;-68
2023/07/13 10:23:02;;;;;;;5.72;1.50;;;;;;;22.47;46.86;101414.38;5000820;28;20057;-69
2023/07/13 10:25:33;;;;;;;9.15;1.80;;;;;;;22.24;47.61;101411.59;5007490;28;20401;-69
2023/07/13 10:28:06;;;;;;;10.98;2.10;;;;;;;22.52;47.31;101416.84;5007444;28;20058;-69
2023/07/13 10:30:36;;;;;;;10.07;1.83;;;;;;;22.60;47.59;101424.22;5003336;28;20164;-69
2023/07/13 10:33:10;;;;;;;9.07;2.05;;;;;;;22.70;47.32;101422.78;5007253;28;20042;-69
2023/07/13 10:35:41;;;;;;;5.72;1.98;;;;;;;22.86;46.92;101426.22;5006553;28;20058;-68
2023/07/13 10:38:14;;;;;;;6.22;1.58;;;;;;;21.76;49.10;101423.50;4993349;28;20077;-71
2023/07/13 10:40:48;;;;;;;6.93;1.90;;;;;;;22.22;48.42;101425.19;5002883;28;20050;-69
2023/07/13 10:43:18;;;;;;;9.23;2.53;;;;;;;22.17;48.29;101436.72;5009048;28;20050;-70
2023/07/13 10:45:49;;;;;;;7.05;2.47;;;;;;;22.50;47.86;101427.66;4991673;28;20046;-72
2023/07/13 10:48:17;;;;;;;7.47;2.25;;;;;;;22.73;47.17;101425.66;5002952;28;20564;-71
2023/07/13 10:50:46;;;;;;;6.93;2.65;;;;;;;23.00;46.51;101429.22;5007676;28;20053;-68
2023/07/13 10:53:22;;;;;;;8.70;2.20;;;;;;;22.94;46.47;101437.19;5006579;28;20056;-69
2023/07/13 10:55:53;;;;;;;6.50;2.67;;;;;;;22.97;46.71;101435.63;5004335;28;20042;-70
2023/07/13 10:58:22;;;;;;;8.45;3.10;;;;;;;22.79;46.75;101432.53;5020868;28;20058;-71
2023/07/13 11:01:11;;;;;;;7.43;2.78;;;;;;;22.96;46.25;101443.22;4986292;28;20046;-70
2023/07/13 11:03:58;;;;;;;11.23;2.50;;;;;;;22.91;46.40;101435.13;5010596;28;20053;-69
2023/07/13 11:06:31;;;;;;;7.82;2.33;;;;;;;22.52;47.24;101441.31;5004088;28;20064;-69
2023/07/13 11:09:17;;;;;;;7.40;2.20;;;;;;;21.98;48.21;101435.97;5004322;28;20045;-68
2023/07/13 11:11:45;;;;;;;10.68;2.22;;;;;;;21.71;49.80;101437.81;5008471;28;20072;-69
2023/07/13 11:14:27;;;;;;;9.75;2.55;;;;;;;22.01;49.09;101433.22;5007231;28;20050;-71
2023/07/13 11:16:55;;;;;;;8.75;3.75;;;;;;;22.55;48.08;101429.34;5005138;28;20046;-71
2023/07/13 11:19:22;;;;;;;8.02;2.50;;;;;;;22.92;47.30;101419.09;5002667;28;20058;-71
2023/07/13 11:22:07;;;;;;;9.90;4.70;;;;;;;23.43;46.41;101415.38;5001703;28;20042;-71
2023/07/13 11:24:48;;;;;;;11.70;2.72;;;;;;;23.43;45.72;101423.03;5008063;28;20058;-72
2023/07/13 11:27:38;;;;;;;5.47;2.25;;;;;;;23.61;45.36;101414.78;4998645;28;20056;-70
2023/07/13 11:30:22;;;;;;;6.00;2.08;;;;;;;23.89;44.25;101412.25;5004352;28;20051;-69
2023/07/13 11:32:51;;;;;;;9.88;2.05;;;;;;;23.90;44.13;101402.63;5013250;28;20086;-71
2023/07/13 11:35:24;;;;;;;;;;;;;;;23.83;44.17;101405.38;5001314;28;20062;-71
2023/07/13 11:37:52;;;;;;;9.82;2.05;;;;;;;23.82;43.34;101400.94;5009997;28;20079;-69